Airfield :
LOGIN :

Register | Disclaimer

   EN    FR    IT 

 










Legend :    VFR   Marginal VFR   IFR   Intensive IFR   Very Intensive IFR
Visi :
Ceiling :
>= 8 km
>= 3000ft
5 to 8 km
1000 to 3000 ft
1500m to 5 km
500 to 1000 ft
800 to 1500m
200 to 500 ft
< 800m
< 200 ft
Symbols :   Thunderstorms  Fog  Heavy snow  Heavy precipitations  Wind > 20 kt
SIGMETs :     Misc.  Thunderstorms  Icing  Turbulence  Mountain Waves  Volcanic Ashes






- Airport Elevation : 286 ft
- IATA code : FFD


EGVA - RAF Fairford

CURRENT METAR :
  • 011306Z AUTO 36004KT 9999 FEW019 BKN026 BKN046 OVC060 18/14 A2986 RMK AO2 CIG 022V045 SLP114 $

EXPIRED METARs :
  • 011256Z AUTO 35005KT 9999 FEW020 BKN025 BKN060 18/14 A2986 RMK AO2 RAE00RAB00E00 CIG 020V025 CIG 019 RWY09 SLP114 P0000 T01810138 $
  • 011210Z AUTO 04005KT 9999 OVC015 17/14 A2985 RMK AO2 RAE00RAB00E00 SLP110 $
  • 011200Z AUTO 02004KT 9999 OVC014 17/14 A2985 RMK AO2 RAE00RAB00 SLP110 $
  • 011056Z AUTO 04007KT 9999 FEW009 OVC018 16/14 A2985 RMK AO2 CIG 017 RWY09 SLP111 T01590141 $
  • 011021Z AUTO 02007KT 9999 SCT013 OVC021 15/14 A2985 RMK AO2 CIG 012V021 CIG 015 RWY09 SLP111 $

Expired Forecast.



MET'MAP, your aeronautical weather chart ! - Copyright ORBIFLY December 2007 - Disclaimer

ORBIFLY MET'MAP TEAM :

Programming & Development : Alexandra Zaïnal
Concept & original design : Baudouin d'Aumeries
Assistance for programming : Marc-Olivier Méhu
Technical & hardware support : Manuel Goepfert

Contact : metmap@orbifly.com




SOURCES & CREDITS :

   NOAA